Time;durP1;ratioP1;P1;durP2;ratioP2;P2;SDS_P1;SDS_P2;PMS_P1;PMS_P2;Temp;Humidity;BMP_temperature;BMP_pressure;BME280_temperature;BME280_humidity;BME280_pressure;Samples;Min_cycle;Max_cycle;Signal;HPM_P1;HPM_P2
2023/07/10 00:00:13;;;;;;;9.05;5.35;;;20.10;53.30;;;;;;4973925;28;20240;-88
2023/07/10 00:02:40;;;;;;;8.75;5.35;;;20.00;53.70;;;;;;4978730;28;20581;-88
2023/07/10 00:05:15;;;;;;;7.25;4.93;;;20.00;54.10;;;;;;4985997;28;20204;-87
2023/07/10 00:07:42;;;;;;;7.55;4.97;;;19.90;53.90;;;;;;4981168;28;20660;-88
2023/07/10 00:10:11;;;;;;;6.95;4.78;;;19.90;54.60;;;;;;5007164;28;20208;-87
2023/07/10 00:12:38;;;;;;;7.95;5.03;;;19.80;54.70;;;;;;4975150;28;20224;-90
2023/07/10 00:15:15;;;;;;;6.78;4.68;;;19.90;54.00;;;;;;4987873;28;20646;-86
2023/07/10 00:17:45;;;;;;;10.15;5.03;;;19.90;55.80;;;;;;4971705;28;20593;-89
2023/07/10 00:20:19;;;;;;;5.80;4.47;;;19.90;55.80;;;;;;4975946;28;20200;-89
2023/07/10 00:22:46;;;;;;;7.00;4.57;;;19.80;55.70;;;;;;4972979;28;20200;-88
2023/07/10 00:25:16;;;;;;;9.55;5.22;;;19.70;55.60;;;;;;4970429;28;20208;-87
2023/07/10 00:27:44;;;;;;;7.05;4.72;;;19.70;55.50;;;;;;4972998;28;20669;-85
2023/07/10 00:30:16;;;;;;;8.15;4.63;;;19.70;55.60;;;;;;4978143;28;20215;-89
2023/07/10 00:32:44;;;;;;;5.82;4.68;;;19.60;55.50;;;;;;4975836;28;20259;-89
2023/07/10 00:35:11;;;;;;;6.63;4.75;;;19.60;55.50;;;;;;4972409;28;20208;-88
2023/07/10 00:37:39;;;;;;;9.82;4.65;;;19.50;55.40;;;;;;4963492;28;20212;-86
2023/07/10 00:40:18;;;;;;;8.65;4.80;;;19.50;55.40;;;;;;4972381;28;20200;-89
2023/07/10 00:42:46;;;;;;;7.22;4.90;;;19.50;55.40;;;;;;4969474;28;20722;-87
2023/07/10 00:45:16;;;;;;;7.82;4.90;;;19.50;55.40;;;;;;4972463;28;20209;-88
2023/07/10 00:47:49;;;;;;;8.27;4.72;;;19.50;55.40;;;;;;5004786;28;20255;-86
2023/07/10 00:50:21;;;;;;;6.53;4.57;;;19.40;55.30;;;;;;4973132;28;20204;-87
2023/07/10 00:52:51;;;;;;;7.75;4.55;;;19.40;55.30;;;;;;4974317;28;20209;-88
2023/07/10 00:55:22;;;;;;;5.97;4.43;;;19.40;55.40;;;;;;4969202;28;20665;-91
2023/07/10 00:57:53;;;;;;;6.63;4.65;;;19.40;55.30;;;;;;4965671;28;20215;-88
2023/07/10 01:00:23;;;;;;;7.47;4.63;;;19.50;55.40;;;;;;4969336;28;20580;-89
2023/07/10 01:02:50;;;;;;;6.65;5.10;;;19.50;55.40;;;;;;4976694;28;20295;-88
2023/07/10 01:05:18;;;;;;;6.47;4.75;;;19.60;55.60;;;;;;4976758;28;20216;-88
2023/07/10 01:07:49;;;;;;;7.55;4.90;;;19.50;55.40;;;;;;4973572;28;20204;-88
2023/07/10 01:10:18;;;;;;;6.00;4.57;;;19.40;55.30;;;;;;4972185;28;20209;-88
2023/07/10 01:12:46;;;;;;;7.45;4.88;;;19.30;55.30;;;;;;4974998;28;20260;-88
2023/07/10 01:15:14;;;;;;;6.07;4.78;;;19.20;55.20;;;;;;4978729;28;20591;-89
2023/07/10 01:17:41;;;;;;;6.03;4.70;;;19.20;56.80;;;;;;4973728;28;20271;-89
2023/07/10 01:20:29;;;;;;;8.32;4.53;;;19.10;58.50;;;;;;5003259;28;20561;-85
2023/07/10 01:22:59;;;;;;;5.50;4.47;;;19.10;57.40;;;;;;5007118;28;20192;-86
2023/07/10 01:25:27;;;;;;;9.35;4.60;;;19.10;58.50;;;;;;4971405;28;20196;-89
2023/07/10 01:27:54;;;;;;;6.50;5.10;;;19.00;57.50;;;;;;4972282;28;20230;-88
2023/07/10 01:30:26;;;;;;;6.47;4.72;;;19.00;58.60;;;;;;4973977;28;20212;-93
2023/07/10 01:47:53;;;;;;;8.82;4.85;;;19.10;58.30;;;;;;4925394;29;20719;-93
2023/07/10 01:50:21;;;;;;;5.80;4.72;;;19.00;59.40;;;;;;4959285;28;20209;-92
2023/07/10 01:52:48;;;;;;;6.38;4.72;;;19.10;58.70;;;;;;4983822;28;20239;-92
2023/07/10 02:01:04;;;;;;;9.73;4.88;;;18.90;58.30;;;;;;4972262;28;20201;-93
2023/07/10 02:03:31;;;;;;;6.32;4.50;;;18.80;58.60;;;;;;4972333;28;20216;-93
2023/07/10 02:08:38;;;;;;;6.82;4.72;;;18.80;59.60;;;;;;4973886;28;20212;-92
2023/07/10 02:11:07;;;;;;;7.80;4.60;;;18.70;59.50;;;;;;4966453;28;20310;-93
2023/07/10 02:13:34;;;;;;;5.10;4.60;;;18.70;59.60;;;;;;4979194;28;20259;-93
2023/07/10 02:18:44;;;;;;;9.65;5.30;;;18.70;60.30;;;;;;4975506;28;20607;-93
2023/07/10 02:23:51;;;;;;;7.72;5.22;;;18.70;64.10;;;;;;4976055;28;20218;-93
2023/07/10 02:29:06;;;;;;;7.55;4.95;;;18.60;63.30;;;;;;4970376;28;20208;-94
2023/07/10 02:31:33;;;;;;;5.72;4.70;;;18.60;64.20;;;;;;4997446;28;20207;-92
2023/07/10 02:34:20;;;;;;;6.82;4.85;;;18.60;65.00;;;;;;4981757;28;20220;-94
2023/07/10 02:36:47;;;;;;;7.22;4.70;;;18.50;65.50;;;;;;4965917;28;20208;-93
2023/07/10 02:39:14;;;;;;;7.70;4.68;;;18.50;67.10;;;;;;4979362;28;20560;-94
2023/07/10 02:47:05;;;;;;;6.68;4.85;;;18.40;68.90;;;;;;4969845;28;20216;-94
2023/07/10 02:52:33;;;;;;;6.50;4.65;;;18.40;69.10;;;;;;4979460;28;20245;-93
2023/07/10 02:55:00;;;;;;;6.57;4.47;;;18.30;68.30;;;;;;4971208;28;20204;-94
2023/07/10 03:03:17;;;;;;;9.30;5.32;;;18.40;68.50;;;;;;4980677;28;20220;-93
2023/07/10 03:05:53;;;;;;;6.05;4.82;;;18.30;67.60;;;;;;4980460;28;20207;-92
2023/07/10 03:08:20;;;;;;;6.80;5.20;;;18.40;67.20;;;;;;4987625;28;20577;-92
2023/07/10 03:19:03;;;;;;;6.72;4.50;;;18.30;69.80;;;;;;4978144;28;20307;-93
2023/07/10 03:21:30;;;;;;;5.85;4.93;;;18.40;68.90;;;;;;4990325;28;20217;-93
2023/07/10 03:23:58;;;;;;;5.85;4.80;;;18.30;69.70;;;;;;4983559;28;20205;-93
2023/07/10 03:26:25;;;;;;;7.88;5.53;;;18.30;68.90;;;;;;4980890;28;20201;-93
2023/07/10 03:37:41;;;;;;;6.78;4.60;;;18.10;73.30;;;;;;4913259;29;20277;-92
2023/07/10 03:42:50;;;;;;;6.35;4.90;;;18.10;71.80;;;;;;4965543;28;20248;-92
2023/07/10 03:47:59;;;;;;;6.75;5.03;;;18.10;70.70;;;;;;4965999;28;20189;-93
2023/07/10 03:53:07;;;;;;;6.00;4.70;;;18.10;71.00;;;;;;4979379;28;20208;-93
2023/07/10 04:06:27;;;;;;;9.50;5.32;;;18.30;68.00;;;;;;4959465;28;20204;-92
2023/07/10 04:11:35;;;;;;;9.27;5.25;;;18.50;69.50;;;;;;4968273;28;20196;-94
2023/07/10 04:14:02;;;;;;;6.35;4.85;;;18.70;69.50;;;;;;4980858;28;20288;-93
2023/07/10 04:19:12;;;;;;;6.85;4.70;;;18.90;63.60;;;;;;4982762;28;20220;-94
2023/07/10 04:21:38;;;;;;;7.80;4.50;;;19.00;61.80;;;;;;4984194;28;20200;-89
2023/07/10 04:24:06;;;;;;;9.27;5.20;;;19.10;63.30;;;;;;4965486;28;20203;-89
2023/07/10 04:26:34;;;;;;;6.20;4.88;;;19.20;62.10;;;;;;4968255;28;20208;-89
2023/07/10 04:29:03;;;;;;;9.23;5.18;;;19.50;60.30;;;;;;4971755;28;20215;-88
2023/07/10 04:31:33;;;;;;;9.07;4.70;;;19.70;59.10;;;;;;4974167;28;20205;-89
2023/07/10 04:34:00;;;;;;;7.22;5.38;;;19.90;55.80;;;;;;4973027;28;20227;-89
2023/07/10 04:36:28;;;;;;;127.95;114.13;;;20.10;56.00;;;;;;4998008;28;20559;-89
2023/07/10 04:38:55;;;;;;;106.88;95.13;;;20.10;56.00;;;;;;4971742;28;20208;-87
2023/07/10 04:41:24;;;;;;;68.80;59.55;;;20.30;56.10;;;;;;4974738;28;20197;-88
2023/07/10 04:43:51;;;;;;;20.25;16.27;;;20.30;56.10;;;;;;4974896;28;20211;-89
2023/07/10 04:46:19;;;;;;;15.25;11.80;;;20.50;56.30;;;;;;4973149;28;20358;-89
2023/07/10 04:48:48;;;;;;;8.95;6.00;;;20.60;56.40;;;;;;4969829;28;20692;-89
2023/07/10 04:51:17;;;;;;;7.13;5.65;;;20.60;52.70;;;;;;4973837;28;20654;-88
2023/07/10 04:53:45;;;;;;;7.60;5.28;;;20.60;55.10;;;;;;4968394;28;20231;-89
2023/07/10 04:56:16;;;;;;;8.05;4.88;;;20.50;56.30;;;;;;4967665;28;20292;-89
2023/07/10 04:58:49;;;;;;;8.60;5.43;;;20.50;56.30;;;;;;4976675;28;20236;-89
2023/07/10 05:01:17;;;;;;;5.80;4.90;;;20.60;56.40;;;;;;4982228;28;20536;-89
2023/07/10 05:04:22;;;;;;;58.95;48.90;;;20.70;56.50;;;;;;4981205;28;20208;-92
2023/07/10 05:06:51;;;;;;;54.08;45.40;;;20.60;56.40;;;;;;4979040;28;20200;-91
2023/07/10 05:09:18;;;;;;;28.40;22.50;;;20.60;56.40;;;;;;4981266;28;20211;-91
2023/07/10 05:11:45;;;;;;;12.00;10.68;;;20.70;56.50;;;;;;4979956;28;20209;-93
2023/07/10 05:14:12;;;;;;;12.32;9.07;;;20.80;56.60;;;;;;4980444;28;20227;-93
2023/07/10 05:16:39;;;;;;;10.30;7.22;;;20.90;56.60;;;;;;4978740;28;20655;-93
2023/07/10 05:19:05;;;;;;;9.32;5.43;;;21.00;56.80;;;;;;4980329;28;20227;-92
2023/07/10 05:24:46;;;;;;;6.93;5.80;;;21.20;53.40;;;;;;4979955;28;20216;-92
2023/07/10 05:27:12;;;;;;;7.03;5.15;;;21.40;52.90;;;;;;4980165;28;20215;-92
2023/07/10 05:38:56;;;;;;;32.17;27.73;;;22.20;47.60;;;;;;4982131;28;20207;-92
2023/07/10 05:41:23;;;;;;;14.90;12.18;;;22.50;46.70;;;;;;4989552;28;20204;-92
2023/07/10 05:43:50;;;;;;;18.70;16.23;;;22.80;45.60;;;;;;4978105;28;20204;-94
2023/07/10 05:46:21;;;;;;;9.57;7.05;;;23.10;43.10;;;;;;4978251;28;20211;-93
2023/07/10 05:48:48;;;;;;;11.73;6.93;;;23.40;41.30;;;;;;4986318;28;20268;-93
2023/07/10 05:51:15;;;;;;;10.95;7.05;;;23.40;41.10;;;;;;4965311;28;20226;-91
2023/07/10 05:53:44;;;;;;;5.35;4.50;;;23.40;41.30;;;;;;5015389;28;20224;-94
2023/07/10 05:58:53;;;;;;;7.13;4.78;;;23.50;39.70;;;;;;4979106;28;20208;-92
2023/07/10 06:01:20;;;;;;;7.35;5.63;;;23.50;39.10;;;;;;4978392;28;20285;-94
2023/07/10 06:03:47;;;;;;;8.27;4.72;;;23.40;40.70;;;;;;4980745;28;20200;-95
2023/07/10 06:06:14;;;;;;;10.68;5.13;;;23.40;39.40;;;;;;4981017;28;20201;-94
2023/07/10 06:08:41;;;;;;;9.48;5.10;;;23.40;40.10;;;;;;4963448;28;20573;-94
2023/07/10 06:11:10;;;;;;;7.50;4.50;;;23.50;39.80;;;;;;4978317;28;20233;-95
2023/07/10 06:19:48;;;;;;;9.32;4.60;;;24.00;37.60;;;;;;5109530;27;20856;-92
2023/07/10 06:22:15;;;;;;;7.25;4.45;;;24.20;36.90;;;;;;5091064;28;20194;-91
2023/07/10 06:24:42;;;;;;;7.95;4.55;;;24.30;36.70;;;;;;5100350;28;20236;-93
2023/07/10 06:27:10;;;;;;;7.30;4.72;;;24.40;35.80;;;;;;5096376;28;20201;-93
2023/07/10 06:29:38;;;;;;;7.35;4.38;;;24.60;35.90;;;;;;5103340;28;20227;-91
2023/07/10 06:32:07;;;;;;;7.55;4.70;;;24.70;35.30;;;;;;5098737;28;20219;-93
2023/07/10 06:34:42;;;;;;;6.47;4.35;;;24.90;34.60;;;;;;5123959;28;20210;-93
2023/07/10 06:40:09;;;;;;;6.68;4.38;;;25.10;29.80;;;;;;5082322;28;20274;-91
2023/07/10 06:42:36;;;;;;;8.68;4.50;;;25.30;26.70;;;;;;5091270;28;20254;-89
2023/07/10 06:45:04;;;;;;;7.45;4.38;;;25.40;24.70;;;;;;5094410;28;20653;-90
2023/07/10 06:47:32;;;;;;;5.15;4.50;;;25.60;24.80;;;;;;5092304;28;20239;-90
2023/07/10 06:49:59;;;;;;;6.07;4.07;;;25.60;24.40;;;;;;5095118;28;20197;-90
2023/07/10 06:52:27;;;;;;;7.85;4.53;;;25.80;23.60;;;;;;5098896;28;20201;-89
2023/07/10 06:54:54;;;;;;;9.25;4.60;;;25.90;22.80;;;;;;5094449;28;20193;-87
2023/07/10 06:57:21;;;;;;;6.35;4.82;;;25.90;25.00;;;;;;5094006;28;20246;-90
2023/07/10 06:59:48;;;;;;;18.02;13.50;;;26.00;23.70;;;;;;5093571;28;20235;-89
2023/07/10 07:02:15;;;;;;;12.27;8.98;;;26.00;22.20;;;;;;5094230;28;20499;-90
2023/07/10 07:04:42;;;;;;;6.35;5.40;;;26.10;22.00;;;;;;5094227;28;20307;-92
2023/07/10 07:07:09;;;;;;;6.75;5.10;;;26.10;22.80;;;;;;5095164;28;20648;-88
2023/07/10 07:09:38;;;;;;;9.73;4.70;;;26.30;20.80;;;;;;5092882;28;20228;-90
2023/07/10 07:12:06;;;;;;;8.27;4.57;;;26.40;19.80;;;;;;5092479;28;20212;-89
2023/07/10 07:14:33;;;;;;;9.23;4.70;;;26.80;19.10;;;;;;5094823;28;20196;-93
2023/07/10 07:17:00;;;;;;;5.95;4.32;;;27.60;17.50;;;;;;5087969;28;20192;-91
2023/07/10 07:19:26;;;;;;;7.10;4.57;;;28.80;16.10;;;;;;5096348;28;20235;-90
2023/07/10 07:21:53;;;;;;;6.85;4.63;;;29.60;12.70;;;;;;5096915;28;20275;-93
2023/07/10 07:24:22;;;;;;;8.52;4.32;;;29.70;11.30;;;;;;5093880;28;20203;-90
2023/07/10 07:27:10;;;;;;;5.20;4.30;;;29.80;11.30;;;;;;5095893;28;20200;-92
2023/07/10 07:29:37;;;;;;;10.88;4.40;;;29.60;11.70;;;;;;5092042;28;20542;-92
2023/07/10 07:32:05;;;;;;;7.03;4.45;;;29.20;11.40;;;;;;5075426;28;20196;-92
2023/07/10 07:34:32;;;;;;;9.15;4.30;;;28.90;11.80;;;;;;5058545;28;20206;-90
2023/07/10 07:36:59;;;;;;;8.82;4.32;;;28.50;12.30;;;;;;5080695;28;20229;-88
2023/07/10 07:39:30;;;;;;;13.40;4.78;;;28.30;12.80;;;;;;5069089;28;20225;-91
2023/07/10 07:41:57;;;;;;;8.57;4.75;;;28.20;13.40;;;;;;5082031;28;20193;-88
2023/07/10 07:44:33;;;;;;;8.45;4.60;;;28.20;13.10;;;;;;5074475;28;20213;-89
2023/07/10 07:47:00;;;;;;;10.60;4.90;;;28.20;13.90;;;;;;5070323;28;20649;-90
2023/07/10 07:49:27;;;;;;;9.68;4.80;;;28.20;14.50;;;;;;5075280;28;20211;-90
2023/07/10 07:51:54;;;;;;;9.23;4.85;;;27.90;14.70;;;;;;5083539;28;20210;-90
2023/07/10 07:54:22;;;;;;;6.60;4.45;;;27.50;15.40;;;;;;5088692;28;20552;-86
2023/07/10 07:56:49;;;;;;;5.97;4.68;;;27.20;15.30;;;;;;5074888;28;20661;-89
2023/07/10 07:59:18;;;;;;;6.88;4.30;;;27.00;16.00;;;;;;5072153;28;20577;-88
2023/07/10 08:01:46;;;;;;;9.55;4.82;;;26.90;15.80;;;;;;5076878;28;20197;-86
2023/07/10 08:04:13;;;;;;;11.02;4.82;;;27.00;15.40;;;;;;5078276;28;20197;-87
2023/07/10 08:06:40;;;;;;;9.82;4.85;;;27.00;16.30;;;;;;5063440;28;20291;-87
2023/07/10 08:09:07;;;;;;;7.63;5.07;;;27.00;15.30;;;;;;5077244;28;20207;-88
2023/07/10 08:11:34;;;;;;;9.85;5.20;;;26.80;16.50;;;;;;5072848;28;20250;-89
2023/07/10 08:14:01;;;;;;;11.00;4.93;;;26.80;16.10;;;;;;5074054;28;20200;-87
2023/07/10 08:16:28;;;;;;;8.63;4.70;;;26.70;16.40;;;;;;5077316;28;20197;-88
2023/07/10 08:18:57;;;;;;;13.93;4.72;;;26.70;16.90;;;;;;5069243;28;20252;-87
2023/07/10 08:21:24;;;;;;;11.00;5.43;;;26.70;17.10;;;;;;5077810;28;20197;-88
2023/07/10 08:23:50;;;;;;;12.35;5.10;;;26.60;17.20;;;;;;5077531;28;20197;-87
2023/07/10 08:26:17;;;;;;;15.77;11.30;;;26.70;17.50;;;;;;5079206;28;20671;-88
2023/07/10 08:28:44;;;;;;;11.63;8.18;;;26.60;17.40;;;;;;5057490;28;20552;-86
2023/07/10 08:31:11;;;;;;;52.75;47.50;;;26.60;17.90;;;;;;5064059;28;20200;-86
2023/07/10 08:33:38;;;;;;;9.00;4.90;;;26.50;18.40;;;;;;5077295;28;20201;-85
2023/07/10 08:36:08;;;;;;;8.75;5.30;;;26.50;18.40;;;;;;5075192;28;20552;-87
2023/07/10 08:38:36;;;;;;;9.85;5.20;;;26.40;18.80;;;;;;5065966;28;20227;-87
2023/07/10 08:41:17;;;;;;;7.65;4.50;;;26.20;19.80;;;;;;5058403;28;20268;-89
2023/07/10 08:43:45;;;;;;;9.40;5.00;;;26.00;19.40;;;;;;5081012;28;20208;-88
2023/07/10 08:46:20;;;;;;;11.82;4.97;;;25.90;19.50;;;;;;5064978;28;20198;-88
2023/07/10 08:48:56;;;;;;;10.27;5.25;;;25.60;20.80;;;;;;5066066;28;20756;-89
2023/07/10 08:51:38;;;;;;;12.40;5.50;;;25.30;25.20;;;;;;5057788;28;20208;-88
2023/07/10 08:54:09;;;;;;;12.90;5.22;;;24.80;29.30;;;;;;5076605;28;20193;-88
2023/07/10 08:56:45;;;;;;;12.10;4.90;;;24.40;35.20;;;;;;5072005;28;20197;-88
2023/07/10 08:59:32;;;;;;;9.13;5.25;;;24.20;35.60;;;;;;5075617;28;20224;-87
2023/07/10 09:01:59;;;;;;;8.75;4.38;;;23.80;37.80;;;;;;5078474;28;20645;-88
2023/07/10 09:04:27;;;;;;;10.75;4.88;;;23.50;42.50;;;;;;5070273;28;20212;-88
2023/07/10 09:07:07;;;;;;;13.30;5.00;;;23.20;46.70;;;;;;5075824;28;20197;-87
2023/07/10 09:09:38;;;;;;;10.13;4.80;;;23.10;48.90;;;;;;5079075;28;20185;-89
2023/07/10 09:12:12;;;;;;;7.78;4.28;;;22.90;48.10;;;;;;5077470;28;20606;-87
2023/07/10 09:20:10;;;;;;;9.55;5.13;;;22.70;51.60;;;;;;5235798;22;20234;-89
2023/07/10 09:25:43;;;;;;;12.20;5.60;;;22.40;58.30;;;;;;5008706;28;20225;-88
2023/07/10 09:28:54;;;;;;;8.57;5.50;;;22.20;62.00;;;;;;5017029;28;20207;-89
2023/07/10 09:31:34;;;;;;;12.50;6.20;;;21.90;67.20;;;;;;5022076;28;20206;-91
2023/07/10 09:36:44;;;;;;;12.15;9.02;;;21.50;77.20;;;;;;5033296;28;20597;-92
2023/07/10 09:42:10;;;;;;;16.88;12.68;;;21.10;83.30;;;;;;5020875;28;20206;-89
2023/07/10 09:44:43;;;;;;;13.93;9.07;;;21.20;84.30;;;;;;5019705;28;20192;-90
2023/07/10 09:50:02;;;;;;;31.02;20.27;;;21.10;90.10;;;;;;5025393;28;20202;-89
2023/07/10 09:55:45;;;;;;;15.80;11.20;;;21.40;89.10;;;;;;5033924;28;20239;-90
2023/07/10 10:04:44;;;;;;;11.43;7.32;;;21.90;90.10;;;;;;5011471;28;20223;-91
2023/07/10 10:15:07;;;;;;;9.07;5.15;;;22.90;82.80;;;;;;4990810;28;20218;-90
2023/07/10 10:42:18;;;;;;;11.73;6.40;;;27.50;42.20;;;;;;5036833;28;20221;-92
2023/07/10 10:54:24;;;;;;;7.47;5.35;;;29.10;29.60;;;;;;5008679;28;20212;-92
2023/07/10 11:09:01;;;;;;;6.65;5.45;;;30.10;25.80;;;;;;4981421;28;20238;-92
2023/07/10 11:21:04;;;;;;;8.95;5.53;;;30.40;20.90;;;;;;5021412;28;20237;-90
2023/07/10 11:38:23;;;;;;;7.03;4.90;;;29.40;22.80;;;;;;4970166;28;20332;-92
2023/07/10 11:47:21;;;;;;;8.50;4.97;;;29.60;20.90;;;;;;5005539;28;20772;-92
2023/07/10 11:50:17;;;;;;;6.00;4.53;;;30.00;19.30;;;;;;5012953;28;20187;-92
2023/07/10 11:55:32;;;;;;;7.35;4.93;;;30.30;17.70;;;;;;5010564;28;20232;-92
2023/07/10 11:58:25;;;;;;;6.70;4.60;;;30.20;19.90;;;;;;5033010;28;20275;-91
2023/07/10 12:03:39;;;;;;;5.93;4.57;;;30.30;17.60;;;;;;5031584;28;20202;-91
2023/07/10 12:11:59;;;;;;;5.38;4.57;;;30.70;17.00;;;;;;5009228;28;20199;-92
2023/07/10 12:14:31;;;;;;;7.82;4.38;;;30.80;14.70;;;;;;5039711;28;20249;-92
2023/07/10 12:19:42;;;;;;;7.32;4.57;;;30.80;17.00;;;;;;5031847;28;20276;-91
2023/07/10 12:25:11;;;;;;;5.57;4.00;;;30.80;15.00;;;;;;5021220;28;20714;-91
2023/07/10 12:33:19;;;;;;;8.68;4.53;;;30.90;15.50;;;;;;5010946;28;20277;-92
2023/07/10 12:35:46;;;;;;;6.32;4.18;;;30.90;13.90;;;;;;5032560;28;20206;-92
2023/07/10 12:38:13;;;;;;;5.50;3.78;;;30.90;12.00;;;;;;5015640;28;20185;-89
2023/07/10 12:43:48;;;;;;;9.05;4.32;;;30.90;12.10;;;;;;4985182;28;20684;-91
2023/07/10 12:51:47;;;;;;;5.70;4.20;;;31.10;11.60;;;;;;5016553;28;20872;-91
2023/07/10 13:00:21;;;;;;;6.78;3.95;;;30.80;11.40;;;;;;5012923;28;20237;-91
2023/07/10 13:02:52;;;;;;;4.95;3.75;;;30.80;12.10;;;;;;5015557;28;20202;-90
2023/07/10 13:16:30;;;;;;;5.53;4.00;;;30.40;12.60;;;;;;5012172;28;20261;-90
2023/07/10 13:18:57;;;;;;;7.00;4.25;;;30.20;12.40;;;;;;5002192;28;20229;-91
2023/07/10 13:21:27;;;;;;;7.72;4.28;;;30.20;13.00;;;;;;5013795;28;20298;-90
2023/07/10 13:23:54;;;;;;;5.97;4.68;;;30.20;13.10;;;;;;4995718;28;21388;-89
2023/07/10 13:26:23;;;;;;;8.95;4.20;;;30.20;13.40;;;;;;5008908;28;20553;-91
2023/07/10 13:31:34;;;;;;;5.65;4.45;;;30.90;11.20;;;;;;5012507;28;20214;-88
2023/07/10 13:34:01;;;;;;;5.47;3.90;;;31.10;11.50;;;;;;5001091;28;20195;-92
2023/07/10 13:36:28;;;;;;;6.50;4.32;;;31.30;12.00;;;;;;5017136;28;20207;-87
2023/07/10 13:38:55;;;;;;;5.20;4.00;;;31.50;12.10;;;;;;5019002;28;20209;-92
2023/07/10 13:41:24;;;;;;;5.45;4.22;;;31.80;11.20;;;;;;5002078;28;20233;-90
2023/07/10 13:43:53;;;;;;;7.55;4.20;;;31.80;9.90;;;;;;5020066;28;20282;-91
2023/07/10 13:51:45;;;;;;;6.53;4.13;;;31.80;11.50;;;;;;4995216;28;20202;-91
2023/07/10 13:54:13;;;;;;;8.27;4.38;;;31.80;10.70;;;;;;5020322;28;20198;-90
2023/07/10 14:02:24;;;;;;;4.85;4.20;;;31.60;10.80;;;;;;5004520;28;20226;-93
2023/07/10 14:04:51;;;;;;;6.88;4.40;;;31.70;11.10;;;;;;4996369;28;20211;-90
2023/07/10 14:10:04;;;;;;;7.47;4.05;;;31.50;10.70;;;;;;5008103;28;20226;-91
2023/07/10 14:18:33;;;;;;;5.05;3.90;;;32.00;10.00;;;;;;5020656;28;20220;-91
2023/07/10 14:24:02;;;;;;;6.68;3.88;;;32.10;10.00;;;;;;4988774;28;20270;-92
2023/07/10 14:26:31;;;;;;;4.47;3.83;;;31.80;10.30;;;;;;5026630;28;20197;-94
2023/07/10 14:28:58;;;;;;;5.28;4.10;;;31.80;10.00;;;;;;5006831;28;20194;-91
2023/07/10 14:34:10;;;;;;;6.55;4.15;;;31.40;9.80;;;;;;5946278;22;20233;-92
2023/07/10 14:39:16;;;;;;;6.35;4.10;;;31.20;11.10;;;;;;5392948;22;20239;-93
2023/07/10 14:41:45;;;;;;;7.13;4.22;;;31.20;10.30;;;;;;5504853;22;20220;-91
2023/07/10 14:44:12;;;;;;;7.03;4.35;;;31.10;9.80;;;;;;5075672;28;20630;-88
2023/07/10 14:49:52;;;;;;;7.10;3.92;;;31.10;10.10;;;;;;5084583;28;20216;-89
2023/07/10 14:55:22;;;;;;;9.40;4.43;;;31.00;11.70;;;;;;5082921;28;20204;-90
2023/07/10 14:57:49;;;;;;;6.05;4.50;;;30.90;12.20;;;;;;5085181;28;20471;-89
2023/07/10 15:00:40;;;;;;;5.65;4.30;;;30.80;12.20;;;;;;5100398;28;20291;-89
2023/07/10 15:03:50;;;;;;;8.15;4.60;;;30.80;12.70;;;;;;5080281;28;20264;-90
2023/07/10 15:11:45;;;;;;;5.75;4.18;;;30.90;10.80;;;;;;5074918;28;21669;-92
2023/07/10 15:14:13;;;;;;;4.53;3.53;;;30.90;9.00;;;;;;5079612;28;20192;-92
2023/07/10 15:16:48;;;;;;;4.75;4.03;;;30.80;8.80;;;;;;5054569;28;20205;-93
2023/07/10 15:19:25;;;;;;;6.03;3.75;;;30.80;9.50;;;;;;5064687;28;20217;-93
2023/07/10 15:21:53;;;;;;;6.70;4.00;;;30.70;9.40;;;;;;5057972;28;20233;-91
2023/07/10 15:27:04;;;;;;;6.38;3.72;;;30.60;10.10;;;;;;5063227;28;20250;-90
2023/07/10 15:29:31;;;;;;;5.95;3.90;;;30.60;9.70;;;;;;5067149;28;20189;-90
2023/07/10 15:32:11;;;;;;;8.52;4.20;;;30.70;9.00;;;;;;5047358;28;20193;-91
2023/07/10 15:34:43;;;;;;;5.90;4.32;;;30.70;9.20;;;;;;5064270;28;20206;-92
2023/07/10 15:40:00;;;;;;;5.05;3.80;;;30.60;10.90;;;;;;5054976;28;20228;-91
2023/07/10 15:47:58;;;;;;;5.47;4.40;;;30.50;11.30;;;;;;5067929;28;20208;-90
2023/07/10 15:50:46;;;;;;;6.45;4.00;;;30.30;11.50;;;;;;5056660;28;20201;-89
2023/07/10 15:53:18;;;;;;;7.70;4.10;;;30.20;12.20;;;;;;5062801;28;20189;-90
2023/07/10 15:55:47;;;;;;;6.90;3.90;;;30.10;13.30;;;;;;5042388;28;20201;-92
2023/07/10 15:58:16;;;;;;;5.70;4.25;;;30.20;12.10;;;;;;5021965;28;20226;-91
2023/07/10 16:03:27;;;;;;;6.38;4.03;;;29.90;12.20;;;;;;5059166;28;20684;-91
2023/07/10 16:08:43;;;;;;;4.90;4.20;;;29.70;12.40;;;;;;5039289;28;20801;-90
2023/07/10 16:11:16;;;;;;;5.72;4.50;;;29.60;12.40;;;;;;5061826;28;20680;-93
2023/07/10 16:13:54;;;;;;;6.30;3.95;;;29.50;11.40;;;;;;5046926;28;20583;-88
2023/07/10 16:16:41;;;;;;;7.78;4.40;;;29.60;11.80;;;;;;5066564;28;20209;-89
2023/07/10 16:21:54;;;;;;;5.70;3.92;;;29.50;12.00;;;;;;5058188;28;20283;-89
2023/07/10 16:24:21;;;;;;;5.88;4.40;;;29.60;11.70;;;;;;5035611;28;20197;-89
2023/07/10 16:26:49;;;;;;;4.70;4.00;;;29.60;11.00;;;;;;5062826;28;20208;-88
2023/07/10 16:29:16;;;;;;;4.25;3.85;;;29.50;11.90;;;;;;5056047;28;20193;-90
2023/07/10 16:31:43;;;;;;;4.95;3.90;;;29.50;11.50;;;;;;5063466;28;20216;-88
2023/07/10 16:34:16;;;;;;;7.18;4.00;;;29.50;11.80;;;;;;5052613;28;20221;-88
2023/07/10 16:36:43;;;;;;;7.05;3.92;;;29.40;12.20;;;;;;5064076;28;20205;-90
2023/07/10 16:41:55;;;;;;;8.88;4.28;;;29.40;12.40;;;;;;5046214;28;20233;-89
2023/07/10 16:44:22;;;;;;;5.97;4.53;;;29.50;11.70;;;;;;5038355;28;20197;-87
2023/07/10 16:46:49;;;;;;;4.43;4.00;;;29.50;12.50;;;;;;5064819;28;20197;-89
2023/07/10 16:49:16;;;;;;;4.57;3.97;;;29.40;12.80;;;;;;5079188;28;20217;-90
2023/07/10 16:51:43;;;;;;;7.28;4.47;;;29.40;13.00;;;;;;5070369;28;20197;-89
2023/07/10 16:56:52;;;;;;;5.60;4.03;;;29.30;13.20;;;;;;5072024;28;20205;-89
2023/07/10 17:02:00;;;;;;;7.63;4.30;;;29.20;13.30;;;;;;5076183;28;20208;-89
2023/07/10 17:04:27;;;;;;;8.23;4.57;;;29.20;14.00;;;;;;5037836;28;20236;-88
2023/07/10 17:06:54;;;;;;;5.05;4.55;;;29.20;14.00;;;;;;5057178;28;20197;-88
2023/07/10 17:12:06;;;;;;;5.75;4.78;;;29.00;14.30;;;;;;5048536;28;20213;-87
2023/07/10 17:14:33;;;;;;;5.65;4.97;;;29.00;14.60;;;;;;5053241;28;20257;-92
2023/07/10 17:17:00;;;;;;;5.65;4.97;;;28.90;15.10;;;;;;5037136;28;20205;-90
2023/07/10 17:19:27;;;;;;;9.45;4.82;;;28.90;16.10;;;;;;5052514;28;20209;-84
2023/07/10 17:21:54;;;;;;;6.85;5.00;;;28.70;16.00;;;;;;5051232;28;20218;-82
2023/07/10 17:24:23;;;;;;;10.43;5.40;;;28.70;16.40;;;;;;5031473;28;20198;-82
2023/07/10 17:26:50;;;;;;;27.73;13.60;;;28.70;17.80;;;;;;5051297;28;20201;-83
2023/07/10 17:29:17;;;;;;;9.05;7.07;;;28.60;17.80;;;;;;5047852;28;20666;-86
2023/07/10 17:31:46;;;;;;;26.50;12.23;;;28.60;17.90;;;;;;5043090;28;20666;-86
2023/07/10 17:34:18;;;;;;;63.05;26.40;;;28.60;18.30;;;;;;5053615;28;20192;-84
2023/07/10 17:36:45;;;;;;;10.35;5.97;;;28.50;18.90;;;;;;5052314;28;20259;-86
2023/07/10 17:39:20;;;;;;;8.98;6.72;;;28.40;19.20;;;;;;5033149;28;20197;-85
2023/07/10 17:41:50;;;;;;;6.47;5.75;;;28.40;19.00;;;;;;5047341;28;20251;-84
2023/07/10 17:44:21;;;;;;;9.40;5.57;;;28.30;19.00;;;;;;5048222;28;20591;-82
2023/07/10 17:46:48;;;;;;;8.07;5.50;;;28.30;19.00;;;;;;5047575;28;20202;-86
2023/07/10 17:49:15;;;;;;;9.95;5.32;;;28.20;19.40;;;;;;5046679;28;20193;-83
2023/07/10 17:51:42;;;;;;;8.90;5.50;;;28.20;19.40;;;;;;5041574;28;20218;-83
2023/07/10 17:54:18;;;;;;;8.20;5.90;;;28.20;20.00;;;;;;5048488;28;20194;-80
2023/07/10 17:56:45;;;;;;;7.88;5.63;;;28.10;20.00;;;;;;5046681;28;20962;-79
2023/07/10 17:59:14;;;;;;;7.28;5.50;;;28.10;20.00;;;;;;5042057;28;20203;-81
2023/07/10 18:01:42;;;;;;;6.53;5.70;;;28.10;20.50;;;;;;5038414;28;20217;-83
2023/07/10 18:04:15;;;;;;;8.88;6.20;;;28.00;20.60;;;;;;5045752;28;20716;-82
2023/07/10 18:06:42;;;;;;;7.82;5.70;;;27.90;21.10;;;;;;5053899;28;20271;-83
2023/07/10 18:09:19;;;;;;;7.95;5.82;;;27.80;21.40;;;;;;5048029;28;20205;-81
2023/07/10 18:11:46;;;;;;;7.88;6.05;;;27.70;21.90;;;;;;5037619;28;20206;-84
2023/07/10 18:14:15;;;;;;;7.75;5.95;;;27.60;22.50;;;;;;5046341;28;20197;-81
2023/07/10 18:16:42;;;;;;;8.70;5.80;;;27.50;22.70;;;;;;5044544;28;20198;-83
2023/07/10 18:19:13;;;;;;;7.07;5.50;;;27.40;23.40;;;;;;5053207;28;20305;-82
2023/07/10 18:21:42;;;;;;;9.15;5.68;;;27.30;23.30;;;;;;5048788;28;20224;-84
2023/07/10 18:24:14;;;;;;;7.10;5.55;;;27.20;23.50;;;;;;5049053;28;20209;-84
2023/07/10 18:26:41;;;;;;;7.65;5.50;;;27.20;23.80;;;;;;5050520;28;20208;-87
2023/07/10 18:29:10;;;;;;;11.82;6.40;;;27.20;24.30;;;;;;5045882;28;20198;-86
2023/07/10 18:31:39;;;;;;;6.18;5.57;;;27.10;24.20;;;;;;5051165;28;20204;-85
2023/07/10 18:34:14;;;;;;;8.75;5.90;;;27.10;25.00;;;;;;5046023;28;20194;-83
2023/07/10 18:36:41;;;;;;;6.18;5.40;;;27.00;25.00;;;;;;5051855;28;20197;-83
2023/07/10 18:39:09;;;;;;;6.75;5.43;;;26.90;25.50;;;;;;5050389;28;20204;-83
2023/07/10 18:41:36;;;;;;;9.32;5.53;;;26.90;25.60;;;;;;5044396;28;20232;-86